Time;durP1;ratioP1;P1;durP2;ratioP2;P2;SDS_P1;SDS_P2;PMS_P1;PMS_P2;Temp;Humidity;BMP_temperature;BMP_pressure;BME280_temperature;BME280_humidity;BME280_pressure;Samples;Min_cycle;Max_cycle;Signal;HPM_P1;HPM_P2
2021/12/22 00:00:24;;;;;;;248.25;79.55;;;;;;;-4.16;77.13;99453.93;1740311;82;25470;-63
2021/12/22 00:02:51;;;;;;;247.35;80.65;;;;;;;-4.16;77.43;99457.95;1740031;82;25703;-63
2021/12/22 00:05:23;;;;;;;280.07;86.82;;;;;;;-4.13;77.49;99459.39;1740158;82;25799;-63
2021/12/22 00:07:50;;;;;;;269.87;87.37;;;;;;;-4.13;77.34;99460.73;1738676;82;25388;-63
2021/12/22 00:10:19;;;;;;;281.85;89.10;;;;;;;-4.14;77.58;99461.77;1740110;82;27521;-63
2021/12/22 00:12:47;;;;;;;271.62;86.72;;;;;;;-4.12;77.73;99471.74;1739991;82;25573;-63
2021/12/22 00:15:14;;;;;;;269.37;87.65;;;;;;;-4.00;78.10;99464.02;1740113;82;25573;-64
2021/12/22 00:17:41;;;;;;;278.95;93.00;;;;;;;-3.86;77.90;99476.13;1739745;82;25789;-63
2021/12/22 00:20:10;;;;;;;288.48;91.90;;;;;;;-3.89;77.46;99477.86;1739844;82;25661;-63
2021/12/22 00:22:38;;;;;;;249.85;84.05;;;;;;;-3.88;77.55;99479.00;1740146;82;27385;-63
2021/12/22 00:25:05;;;;;;;251.22;84.17;;;;;;;-3.89;77.39;99480.53;1739984;82;25810;-63
2021/12/22 00:27:31;;;;;;;243.20;78.65;;;;;;;-3.87;77.51;99486.50;1740106;82;25416;-63
2021/12/22 00:29:57;;;;;;;234.27;73.85;;;;;;;-3.87;77.61;99487.34;1739815;82;25809;-63
2021/12/22 00:32:26;;;;;;;231.53;73.22;;;;;;;-3.84;77.99;99484.77;1740137;82;25697;-63
2021/12/22 00:34:54;;;;;;;201.50;69.40;;;;;;;-3.76;77.82;99490.47;1739809;82;26782;-62
2021/12/22 00:37:29;;;;;;;227.53;72.35;;;;;;;-3.74;77.79;99489.27;1739668;82;25781;-63
2021/12/22 00:39:57;;;;;;;219.43;73.87;;;;;;;-3.67;78.00;99490.13;1740072;82;25589;-63
2021/12/22 00:42:24;;;;;;;238.57;82.57;;;;;;;-3.60;77.92;99487.98;1740121;82;26212;-63
2021/12/22 00:44:54;;;;;;;213.97;72.80;;;;;;;-3.59;77.56;99488.29;1739871;82;25643;-62
2021/12/22 00:47:25;;;;;;;204.70;66.15;;;;;;;-3.60;77.48;99484.77;1740174;82;28136;-62
2021/12/22 00:49:51;;;;;;;206.85;71.28;;;;;;;-3.59;77.67;99490.47;1740237;82;25703;-62
2021/12/22 00:52:18;;;;;;;196.37;62.38;;;;;;;-3.54;77.80;99500.59;1739815;82;25606;-62
2021/12/22 00:54:44;;;;;;;181.15;62.70;;;;;;;-3.51;77.73;99497.51;1739798;82;25738;-63
2021/12/22 00:57:11;;;;;;;192.13;68.10;;;;;;;-3.46;77.84;99502.23;1739810;82;25481;-64
2021/12/22 00:59:38;;;;;;;184.30;62.48;;;;;;;-3.43;77.87;99505.86;1739901;82;27482;-63
2021/12/22 01:02:07;;;;;;;169.95;61.60;;;;;;;-3.43;77.95;99504.52;1739715;82;25680;-64
2021/12/22 01:04:35;;;;;;;162.18;60.35;;;;;;;-3.43;78.10;99502.67;1740060;82;25723;-64
2021/12/22 01:07:01;;;;;;;156.28;54.63;;;;;;;-3.44;78.04;99509.07;1739791;82;25794;-63
2021/12/22 01:09:27;;;;;;;170.87;58.45;;;;;;;-3.46;78.28;99516.98;1739827;82;25663;-64
2021/12/22 01:11:54;;;;;;;200.72;71.70;;;;;;;-3.45;78.39;99513.30;1740138;82;27449;-63
2021/12/22 01:14:21;;;;;;;178.42;63.00;;;;;;;-3.41;78.37;99504.66;1739818;82;25755;-63
2021/12/22 01:16:51;;;;;;;139.75;50.15;;;;;;;-3.40;78.34;99505.46;1739789;82;25423;-63
2021/12/22 01:19:31;;;;;;;130.63;47.88;;;;;;;-3.44;78.25;99518.95;1740001;82;26584;-63
2021/12/22 01:21:54;;;;;;;135.52;47.40;;;;;;;-3.50;78.36;99513.89;1738517;82;25652;-62
2021/12/22 01:24:28;;;;;;;127.32;46.98;;;;;;;-3.50;78.53;99513.89;1739631;82;26780;-63
2021/12/22 01:26:52;;;;;;;129.32;47.62;;;;;;;-3.49;78.62;99509.37;1737266;82;25712;-62
2021/12/22 01:29:15;;;;;;;140.18;56.30;;;;;;;-3.48;78.72;99517.20;1739104;82;25689;-62
2021/12/22 01:31:43;;;;;;;146.32;53.78;;;;;;;-3.48;78.57;99520.39;1739970;82;26244;-63
2021/12/22 01:34:10;;;;;;;140.12;50.67;;;;;;;-3.50;78.76;99524.61;1739797;82;25391;-64
2021/12/22 01:36:38;;;;;;;128.68;47.62;;;;;;;-3.49;78.92;99527.59;1740291;82;28047;-63
2021/12/22 01:39:06;;;;;;;517.45;224.20;;;;;;;-3.47;78.88;99526.05;1739969;82;25604;-63
2021/12/22 01:41:33;;;;;;;412.98;166.22;;;;;;;-3.43;78.89;99518.75;1739707;82;25460;-62
2021/12/22 01:43:59;;;;;;;161.75;57.98;;;;;;;-3.40;78.70;99519.70;1739751;82;27921;-63
2021/12/22 01:49:40;;;;;;;187.65;68.37;;;;;;;-3.36;78.71;99517.95;1739758;82;25645;-63
2021/12/22 01:52:07;;;;;;;231.80;85.22;;;;;;;-3.33;78.64;99514.38;1739652;82;25609;-63
2021/12/22 01:55:03;;;;;;;255.03;91.30;;;;;;;-3.33;78.62;99507.67;1739794;82;25648;-63
2021/12/22 01:57:25;;;;;;;130.37;45.52;;;;;;;-3.29;78.48;99506.73;1739457;82;25464;-63
2021/12/22 01:59:52;;;;;;;122.82;47.15;;;;;;;-3.26;78.57;99512.23;1739893;82;25637;-62
2021/12/22 02:02:18;;;;;;;232.60;76.75;;;;;;;-3.23;78.60;99510.49;1739841;82;27403;-63
2021/12/22 02:04:45;;;;;;;134.95;49.58;;;;;;;-3.22;78.55;99508.11;1739643;82;25749;-63
2021/12/22 02:07:13;;;;;;;477.60;193.87;;;;;;;-3.20;78.59;99504.73;1740036;82;25604;-64
2021/12/22 02:10:04;;;;;;;156.45;54.42;;;;;;;-3.18;78.67;99503.48;1740181;82;26470;-63
2021/12/22 02:12:21;;;;;;;201.60;72.75;;;;;;;-3.12;78.74;99504.52;1726063;82;25502;-62
2021/12/22 02:14:47;;;;;;;488.98;211.87;;;;;;;-3.10;78.69;99501.14;1729632;83;27511;-63
2021/12/22 02:17:14;;;;;;;275.73;102.30;;;;;;;-3.11;78.44;99503.48;1729583;83;25680;-63
2021/12/22 02:19:46;;;;;;;185.80;67.97;;;;;;;-3.08;78.45;99500.40;1729549;82;25921;-63
2021/12/22 02:22:16;;;;;;;436.55;182.10;;;;;;;-3.06;78.50;99497.52;1729514;83;25717;-62
2021/12/22 02:24:53;;;;;;;142.45;46.48;;;;;;;-3.02;78.52;99498.78;1729260;83;25416;-63
2021/12/22 02:27:37;;;;;;;136.45;47.83;;;;;;;-3.04;78.51;99505.69;1729285;82;26992;-62
2021/12/22 02:30:00;;;;;;;130.67;44.77;;;;;;;-3.05;78.71;99505.36;1729457;82;25618;-62
2021/12/22 02:32:54;;;;;;;139.22;52.27;;;;;;;-3.04;78.84;99502.17;1729390;82;25578;-62
2021/12/22 02:34:53;;;;;;;120.20;45.33;;;;;;;-3.05;79.04;99506.70;1729313;82;25683;-63
2021/12/22 02:37:26;;;;;;;146.22;53.08;;;;;;;-3.04;79.08;99504.86;1731260;82;25630;-63
2021/12/22 02:40:00;;;;;;;96.12;36.38;;;;;;;-3.05;79.04;99512.59;1734224;82;27563;-64
2021/12/22 02:42:31;;;;;;;109.90;39.33;;;;;;;-3.06;79.11;99507.73;1733769;82;25585;-63
2021/12/22 02:45:09;;;;;;;120.02;44.93;;;;;;;-3.08;79.03;99509.78;1759271;81;25639;-63
2021/12/22 02:47:35;;;;;;;189.60;67.22;;;;;;;-3.08;79.12;99511.13;1755622;81;26736;-62
2021/12/22 02:50:05;;;;;;;123.22;43.17;;;;;;;-3.07;79.15;99515.98;1759225;81;25465;-62
2021/12/22 02:52:40;;;;;;;100.72;35.60;;;;;;;-3.07;79.16;99511.96;1759338;81;27438;-61
2021/12/22 02:55:01;;;;;;;101.45;37.17;;;;;;;-3.08;79.08;99512.47;1757643;81;25811;-61
2021/12/22 02:57:36;;;;;;;92.20;36.58;;;;;;;-3.08;79.16;99512.47;1759325;81;25598;-61
2021/12/22 03:05:10;;;;;;;108.45;39.60;;;;;;;-3.08;78.92;99505.77;1759400;81;25581;-62
2021/12/22 03:07:37;;;;;;;102.60;38.83;;;;;;;-3.08;79.05;99509.78;1759374;81;25594;-61
2021/12/22 03:10:12;;;;;;;110.55;39.90;;;;;;;-3.09;78.94;99508.64;1759405;81;25392;-62
2021/12/22 03:12:37;;;;;;;118.70;45.33;;;;;;;-3.12;79.16;99508.55;1759218;81;25653;-61
2021/12/22 03:15:07;;;;;;;114.97;43.68;;;;;;;-3.16;79.36;99512.13;1759276;81;25638;-64
2021/12/22 03:17:34;;;;;;;141.77;52.93;;;;;;;-3.14;79.34;99528.02;1759455;81;27438;-62
2021/12/22 03:20:01;;;;;;;122.10;45.83;;;;;;;-3.10;79.61;99517.73;1759478;81;25614;-62
2021/12/22 03:22:28;;;;;;;89.65;34.75;;;;;;;-3.11;79.91;99525.47;1759200;81;25747;-62
2021/12/22 03:24:54;;;;;;;130.93;52.88;;;;;;;-3.09;79.87;99522.89;1759262;81;25771;-62
2021/12/22 03:27:23;;;;;;;115.75;45.70;;;;;;;-3.08;79.79;99527.22;1759611;81;25636;-62
2021/12/22 03:29:50;;;;;;;132.63;51.28;;;;;;;-3.02;80.00;99523.73;1759273;81;27478;-63
2021/12/22 03:32:17;;;;;;;88.90;37.40;;;;;;;-2.96;80.00;99526.13;1759151;81;25593;-62
2021/12/22 03:34:44;;;;;;;109.67;43.25;;;;;;;-2.91;80.16;99522.81;1759510;81;26467;-62
2021/12/22 03:37:12;;;;;;;92.40;37.05;;;;;;;-2.89;79.98;99530.16;1758689;81;26684;-61
2021/12/22 03:39:38;;;;;;;126.82;49.08;;;;;;;-2.85;80.03;99531.39;1757082;81;25435;-62
2021/12/22 03:42:09;;;;;;;101.70;40.83;;;;;;;-2.84;80.36;99529.04;1756711;81;27423;-62
2021/12/22 03:44:36;;;;;;;76.50;30.20;;;;;;;-2.85;80.32;99532.73;1756843;81;25646;-64
2021/12/22 03:47:04;;;;;;;93.12;40.55;;;;;;;-2.84;80.14;99533.57;1756967;81;25653;-63
2021/12/22 03:49:31;;;;;;;98.00;38.13;;;;;;;-2.81;80.30;99535.34;1756649;81;25803;-63
2021/12/22 03:51:57;;;;;;;73.72;31.35;;;;;;;-2.77;80.22;99532.55;1757309;81;25549;-63
2021/12/22 03:54:24;;;;;;;78.78;32.40;;;;;;;-2.71;80.20;99533.59;1756694;81;27499;-63
2021/12/22 03:56:50;;;;;;;73.45;27.50;;;;;;;-2.66;80.18;99535.66;1756643;81;25654;-63
2021/12/22 03:59:18;;;;;;;103.40;44.95;;;;;;;-2.61;80.21;99533.70;1756728;81;25452;-63
2021/12/22 04:01:45;;;;;;;75.20;31.25;;;;;;;-2.62;79.94;99530.18;1757178;81;26405;-62
2021/12/22 04:04:16;;;;;;;87.72;33.18;;;;;;;-2.60;80.09;99531.32;1756776;81;25650;-63
2021/12/22 04:06:44;;;;;;;182.30;68.33;;;;;;;-2.59;80.18;99531.12;1756505;81;25884;-63
2021/12/22 04:09:11;;;;;;;125.75;51.13;;;;;;;-2.58;80.03;99527.92;1756777;81;25638;-62
2021/12/22 04:11:38;;;;;;;137.45;54.30;;;;;;;-2.58;80.20;99535.47;1757481;81;25404;-63
2021/12/22 04:14:04;;;;;;;157.62;49.18;;;;;;;-2.57;80.21;99525.03;1756756;81;27769;-62
2021/12/22 04:16:31;;;;;;;152.62;52.73;;;;;;;-2.51;80.28;99531.44;1756822;81;25725;-63
2021/12/22 04:18:57;;;;;;;98.58;38.00;;;;;;;-2.47;80.18;99529.17;1757352;81;27426;-64
2021/12/22 04:21:23;;;;;;;135.97;53.38;;;;;;;-2.42;80.26;99524.83;1756854;81;27174;-62
2021/12/22 04:23:50;;;;;;;87.95;35.28;;;;;;;-2.43;80.22;99528.56;1756836;81;25424;-64
2021/12/22 04:26:17;;;;;;;83.15;31.45;;;;;;;-2.43;80.23;99533.09;1756833;81;25764;-63
2021/12/22 04:28:43;;;;;;;138.52;42.73;;;;;;;-2.48;80.31;99531.02;1756851;81;25392;-62
2021/12/22 04:31:10;;;;;;;136.50;43.73;;;;;;;-2.47;80.26;99534.55;1756775;81;27494;-62
2021/12/22 04:33:37;;;;;;;78.52;28.25;;;;;;;-2.46;80.53;99540.21;1756850;81;25657;-63
2021/12/22 04:36:04;;;;;;;143.52;41.13;;;;;;;-2.47;80.41;99535.38;1757237;81;25767;-64
2021/12/22 04:38:30;;;;;;;228.83;72.10;;;;;;;-2.46;80.38;99533.50;1758549;81;25752;-63
2021/12/22 04:40:57;;;;;;;201.18;54.13;;;;;;;-2.43;80.45;99533.92;1759751;81;25574;-63
2021/12/22 04:43:23;;;;;;;181.87;54.95;;;;;;;-2.34;80.46;99540.42;1759824;81;27620;-63
2021/12/22 04:45:50;;;;;;;118.77;43.08;;;;;;;-2.30;80.17;99544.36;1759119;81;25663;-63
2021/12/22 04:48:16;;;;;;;200.25;64.42;;;;;;;-2.32;80.06;99543.23;1759356;81;25424;-63
2021/12/22 04:50:43;;;;;;;145.75;43.85;;;;;;;-2.33;79.99;99542.09;1759271;81;25768;-63
2021/12/22 04:53:17;;;;;;;226.58;78.62;;;;;;;-2.34;79.97;99545.28;1759408;81;25643;-62
2021/12/22 04:55:37;;;;;;;142.00;49.27;;;;;;;-2.33;80.04;99546.92;1757733;81;26205;-62
2021/12/22 04:58:04;;;;;;;85.30;35.73;;;;;;;-2.36;79.98;99541.97;1759560;81;25428;-63
2021/12/22 05:00:34;;;;;;;85.67;35.20;;;;;;;-2.37;80.10;99540.83;1759295;81;25663;-62
2021/12/22 05:03:01;;;;;;;57.05;26.27;;;;;;;-2.41;80.29;99545.80;1759860;81;32266;-62
2021/12/22 05:05:28;;;;;;;67.62;29.37;;;;;;;-2.44;80.52;99549.73;1759313;81;25731;-63
2021/12/22 05:07:55;;;;;;;83.78;37.42;;;;;;;-2.42;80.43;99540.94;1755143;81;27475;-64
2021/12/22 05:10:23;;;;;;;84.62;36.38;;;;;;;-2.42;80.56;99541.47;1733322;81;27126;-63
2021/12/22 05:12:51;;;;;;;99.75;44.58;;;;;;;-2.37;80.59;99542.17;1746312;82;25644;-62
2021/12/22 05:15:23;;;;;;;77.05;35.17;;;;;;;-2.41;80.65;99543.12;1746533;82;25851;-63
2021/12/22 05:20:22;;;;;;;62.25;25.27;;;;;;;-2.41;80.67;99549.33;1746865;81;25730;-63
2021/12/22 05:22:49;;;;;;;52.13;21.85;;;;;;;-2.39;80.71;99547.74;1747059;82;25594;-64
2021/12/22 05:25:15;;;;;;;54.65;22.73;;;;;;;-2.36;80.71;99545.99;1746665;82;25588;-63
2021/12/22 05:27:41;;;;;;;51.18;22.87;;;;;;;-2.31;80.60;99546.72;1746959;82;25924;-63
2021/12/22 05:30:11;;;;;;;52.40;21.42;;;;;;;-2.35;80.34;99549.01;1746627;82;25977;-63
2021/12/22 05:32:38;;;;;;;56.20;23.83;;;;;;;-2.40;80.57;99544.25;1747010;82;28096;-63
2021/12/22 05:35:08;;;;;;;56.50;21.82;;;;;;;-2.41;80.46;99555.20;1746535;82;27212;-63
2021/12/22 05:37:36;;;;;;;49.73;21.05;;;;;;;-2.43;80.50;99554.56;1746176;82;25656;-63
2021/12/22 05:40:05;;;;;;;80.03;29.82;;;;;;;-2.45;80.50;99548.59;1739173;82;26302;-63
2021/12/22 05:42:31;;;;;;;48.28;21.48;;;;;;;-2.44;80.58;99553.77;1739256;82;25396;-62
2021/12/22 05:44:58;;;;;;;58.13;23.65;;;;;;;-2.46;80.67;99554.47;1739006;82;27387;-63
2021/12/22 05:47:24;;;;;;;53.33;20.50;;;;;;;-2.46;80.42;99553.13;1738996;82;25705;-63
2021/12/22 05:49:51;;;;;;;57.62;22.25;;;;;;;-2.49;80.38;99552.20;1739006;82;25696;-63
2021/12/22 05:52:17;;;;;;;45.40;18.12;;;;;;;-2.50;80.36;99556.42;1738882;82;27864;-62
2021/12/22 05:54:45;;;;;;;52.60;21.55;;;;;;;-2.52;80.35;99554.78;1739083;82;25626;-64
2021/12/22 05:57:11;;;;;;;45.80;19.73;;;;;;;-2.54;80.35;99562.20;1738975;82;27391;-63
2021/12/22 05:59:38;;;;;;;53.90;20.77;;;;;;;-2.55;80.27;99561.06;1738890;82;25577;-63
2021/12/22 06:02:04;;;;;;;81.75;31.27;;;;;;;-2.57;80.33;99567.14;1739323;82;25452;-64
2021/12/22 06:04:31;;;;;;;52.13;21.17;;;;;;;-2.55;80.29;99571.30;1738929;82;25871;-62
2021/12/22 06:06:57;;;;;;;59.98;23.70;;;;;;;-2.52;80.27;99571.39;1739033;82;25420;-63
2021/12/22 06:09:24;;;;;;;43.10;16.35;;;;;;;-2.52;80.24;99573.58;1739431;82;27437;-63
2021/12/22 06:11:50;;;;;;;46.68;17.25;;;;;;;-2.49;80.22;99580.89;1739010;82;25657;-63
2021/12/22 06:14:17;;;;;;;77.55;27.95;;;;;;;-2.49;80.18;99583.56;1738867;82;25426;-64
2021/12/22 06:16:43;;;;;;;79.97;29.55;;;;;;;-2.50;80.16;99585.95;1739025;82;25905;-63
2021/12/22 06:19:10;;;;;;;60.88;22.42;;;;;;;-2.49;80.53;99588.94;1738932;82;25422;-63
2021/12/22 06:21:38;;;;;;;79.05;27.50;;;;;;;-2.53;80.13;99592.03;1739170;82;27999;-63
2021/12/22 06:24:06;;;;;;;61.83;21.70;;;;;;;-2.53;80.32;99595.25;1738758;82;25953;-62
2021/12/22 06:26:32;;;;;;;56.30;20.30;;;;;;;-2.53;80.33;99597.94;1738939;82;25613;-62
2021/12/22 06:28:58;;;;;;;81.45;26.93;;;;;;;-2.51;80.25;99603.91;1724727;82;25620;-63
2021/12/22 06:31:25;;;;;;;81.42;28.47;;;;;;;-2.51;80.29;99599.88;1716177;83;25777;-63
2021/12/22 06:33:52;;;;;;;126.60;39.90;;;;;;;-2.48;80.20;99608.87;1685333;85;27497;-63
2021/12/22 06:36:22;;;;;;;95.12;29.63;;;;;;;-2.49;80.24;99609.91;1715996;83;25649;-63
2021/12/22 06:38:48;;;;;;;83.00;28.83;;;;;;;-2.53;80.22;99605.98;1725880;83;25503;-63
2021/12/22 06:41:14;;;;;;;66.28;24.77;;;;;;;-2.55;80.31;99609.38;1731514;82;25813;-63
2021/12/22 06:43:41;;;;;;;86.87;30.48;;;;;;;-2.56;80.42;99617.94;1710238;82;25623;-63
2021/12/22 06:46:09;;;;;;;95.83;32.33;;;;;;;-2.55;80.42;99622.29;1710388;83;27545;-63
2021/12/22 06:48:35;;;;;;;41.75;17.98;;;;;;;-2.54;80.56;99627.96;1709950;83;25841;-63
2021/12/22 06:51:02;;;;;;;92.10;30.88;;;;;;;-2.52;80.64;99633.13;1710769;83;25493;-63
2021/12/22 06:53:31;;;;;;;44.80;19.65;;;;;;;-2.53;80.52;99632.83;1709683;83;25800;-63
2021/12/22 06:55:56;;;;;;;39.18;18.32;;;;;;;-2.52;80.60;99641.18;1709907;83;25444;-62
2021/12/22 06:58:22;;;;;;;72.87;28.98;;;;;;;-2.48;80.66;99634.91;1711003;83;27431;-63
2021/12/22 07:00:50;;;;;;;50.88;22.87;;;;;;;-2.46;80.55;99645.73;1710468;83;25674;-63
2021/12/22 07:03:16;;;;;;;100.47;39.42;;;;;;;-2.44;80.56;99644.20;1709944;83;25580;-63
2021/12/22 07:05:43;;;;;;;69.00;27.35;;;;;;;-2.43;80.49;99651.20;1710317;83;25801;-63
2021/12/22 07:08:09;;;;;;;67.87;26.17;;;;;;;-2.43;80.54;99654.73;1710351;83;25681;-63
2021/12/22 07:10:36;;;;;;;30.92;14.15;;;;;;;-2.44;80.38;99665.17;1710618;83;27686;-63
2021/12/22 07:13:02;;;;;;;33.78;15.72;;;;;;;-2.48;80.46;99654.50;1709698;83;25538;-63
2021/12/22 07:15:28;;;;;;;32.65;13.05;;;;;;;-2.46;80.65;99662.34;1687426;83;25820;-64
2021/12/22 07:17:55;;;;;;;34.35;15.03;;;;;;;-2.44;80.50;99662.48;1710251;83;25793;-66
2021/12/22 07:20:23;;;;;;;32.90;14.18;;;;;;;-2.40;80.45;99661.54;1710330;83;25408;-64
2021/12/22 07:22:50;;;;;;;43.28;18.82;;;;;;;-2.36;80.56;99664.13;1710284;83;27506;-66
2021/12/22 07:25:18;;;;;;;30.02;14.28;;;;;;;-2.33;80.48;99662.38;1710787;83;26390;-63
2021/12/22 07:27:45;;;;;;;39.23;17.48;;;;;;;-2.29;80.19;99665.48;1713771;83;25619;-66
2021/12/22 07:30:13;;;;;;;56.70;24.02;;;;;;;-2.27;80.16;99674.18;1715834;82;25757;-63
2021/12/22 07:32:40;;;;;;;28.07;13.78;;;;;;;-2.22;80.11;99670.88;1714576;83;25632;-63
2021/12/22 07:35:16;;;;;;;55.28;23.18;;;;;;;-2.22;80.04;99673.57;1716538;83;27889;-63
2021/12/22 07:38:03;;;;;;;45.15;19.30;;;;;;;-2.21;79.99;99675.21;1715671;83;25670;-63
2021/12/22 07:40:30;;;;;;;35.35;15.35;;;;;;;-2.19;80.00;99683.37;1710603;83;25651;-62
2021/12/22 07:42:56;;;;;;;35.20;15.03;;;;;;;-2.12;79.94;99678.53;1710303;83;25791;-64
2021/12/22 07:45:23;;;;;;;181.65;61.68;;;;;;;-2.10;79.68;99676.48;1708280;84;25407;-62
2021/12/22 07:47:50;;;;;;;54.98;20.55;;;;;;;-2.07;79.91;99682.24;1710026;83;27522;-66
2021/12/22 07:50:16;;;;;;;59.42;22.75;;;;;;;-2.03;79.59;99681.33;1708301;84;25720;-64
2021/12/22 07:52:42;;;;;;;57.45;20.80;;;;;;;-1.94;79.82;99690.02;1710600;83;25694;-63
2021/12/22 07:55:09;;;;;;;116.55;37.38;;;;;;;-1.91;79.55;99689.09;1708643;84;26021;-63
2021/12/22 07:57:35;;;;;;;156.75;51.33;;;;;;;-1.89;79.41;99690.23;1710244;83;25423;-63
2021/12/22 08:00:04;;;;;;;175.15;52.40;;;;;;;-1.87;79.07;99692.72;1714968;83;27443;-63
2021/12/22 08:02:31;;;;;;;81.65;27.35;;;;;;;-1.86;79.37;99689.83;1691213;83;25447;-63
2021/12/22 08:04:57;;;;;;;46.55;17.77;;;;;;;-1.85;78.95;99698.19;1686938;85;25494;-62
2021/12/22 08:07:32;;;;;;;86.72;29.80;;;;;;;-1.82;78.96;99696.43;1684979;85;25774;-62
2021/12/22 08:09:59;;;;;;;66.72;26.27;;;;;;;-1.82;78.98;99695.09;1685231;85;25676;-62
2021/12/22 08:12:25;;;;;;;53.05;23.42;;;;;;;-1.77;78.77;99690.44;1685737;85;27375;-62
2021/12/22 08:14:51;;;;;;;71.80;29.45;;;;;;;-1.85;78.09;99693.31;1684650;85;25418;-62
2021/12/22 08:17:18;;;;;;;65.10;25.10;;;;;;;-1.80;78.33;99695.72;1708146;83;25497;-63
2021/12/22 08:19:45;;;;;;;38.60;20.00;;;;;;;-1.72;78.58;99694.69;1710484;83;25895;-62
2021/12/22 08:22:11;;;;;;;44.45;24.00;;;;;;;-1.70;77.96;99696.63;1708451;84;25450;-63
2021/12/22 08:24:38;;;;;;;66.57;28.45;;;;;;;-1.70;77.66;99697.98;1710487;83;27475;-63
2021/12/22 08:27:06;;;;;;;77.70;31.15;;;;;;;-1.65;77.89;99700.88;1708293;83;25471;-62
2021/12/22 08:29:32;;;;;;;90.95;33.25;;;;;;;-1.60;77.70;99698.92;1710760;83;25698;-63
2021/12/22 08:31:58;;;;;;;50.00;22.27;;;;;;;-1.54;77.66;99705.32;1708206;84;25679;-63
2021/12/22 08:34:34;;;;;;;78.70;31.90;;;;;;;-1.53;76.66;99703.77;1710568;83;25465;-63
2021/12/22 08:39:41;;;;;;;196.57;62.38;;;;;;;-1.55;77.09;99711.74;1718360;83;25595;-64
2021/12/22 08:42:10;;;;;;;115.62;49.65;;;;;;;-1.41;75.77;99711.22;1688551;84;25733;-63
2021/12/22 08:44:36;;;;;;;217.37;59.65;;;;;;;-1.44;75.58;99714.33;1746087;81;25462;-63
2021/12/22 08:47:04;;;;;;;247.37;62.50;;;;;;;-1.16;75.86;99714.58;1745790;82;25751;-63
2021/12/22 08:49:31;;;;;;;118.45;33.50;;;;;;;-0.83;76.05;99711.50;1738866;82;27464;-63
2021/12/22 08:51:57;;;;;;;65.95;25.57;;;;;;;-0.48;75.52;99715.20;1743819;82;25688;-64
2021/12/22 08:54:25;;;;;;;103.87;31.40;;;;;;;-0.11;74.95;99723.19;1759490;81;25439;-63
2021/12/22 08:56:51;;;;;;;97.62;28.73;;;;;;;0.12;74.47;99728.83;1759499;81;25721;-63
2021/12/22 08:59:18;;;;;;;40.67;18.40;;;;;;;0.31;73.45;99726.22;1757398;81;25671;-65
2021/12/22 09:01:45;;;;;;;51.50;21.17;;;;;;;0.42;73.27;99732.77;1729322;81;27817;-66
2021/12/22 09:04:12;;;;;;;59.38;23.40;;;;;;;0.64;73.31;99732.91;1754930;81;25741;-65
2021/12/22 09:06:39;;;;;;;38.33;16.57;;;;;;;0.79;72.39;99732.56;1759756;81;25665;-65
2021/12/22 09:09:08;;;;;;;60.33;22.05;;;;;;;0.82;69.12;99731.60;1759710;81;25851;-67
2021/12/22 09:11:35;;;;;;;33.00;13.58;;;;;;;0.89;70.56;99727.47;1759789;81;25464;-65
2021/12/22 09:14:05;;;;;;;30.85;15.53;;;;;;;0.73;68.18;99726.19;1738599;81;27708;-65
2021/12/22 09:16:33;;;;;;;32.95;16.60;;;;;;;0.83;70.46;99727.02;1759301;81;25467;-64
2021/12/22 09:19:01;;;;;;;45.58;17.73;;;;;;;0.85;68.72;99725.77;1759562;81;25763;-64
2021/12/22 09:21:28;;;;;;;63.87;21.52;;;;;;;0.83;69.74;99731.89;1759788;81;25897;-65
2021/12/22 09:23:54;;;;;;;46.23;19.30;;;;;;;1.05;69.90;99730.64;1759522;81;25698;-65
2021/12/22 09:26:21;;;;;;;105.55;35.88;;;;;;;1.27;68.56;99740.49;1759540;81;27606;-65
2021/12/22 09:28:48;;;;;;;41.37;19.15;;;;;;;1.60;68.46;99739.78;1759261;81;25574;-63
2021/12/22 09:31:15;;;;;;;25.68;11.40;;;;;;;1.85;67.64;99744.25;1759702;81;25464;-63
2021/12/22 09:33:42;;;;;;;19.98;8.88;;;;;;;1.99;64.72;99732.72;1759462;81;25801;-64
2021/12/22 09:36:11;;;;;;;18.32;10.05;;;;;;;2.24;65.66;99735.25;1759688;81;25484;-62
2021/12/22 09:38:38;;;;;;;21.07;11.48;;;;;;;2.36;65.22;99737.17;1759755;80;27250;-62
2021/12/22 09:41:07;;;;;;;18.98;11.68;;;;;;;2.62;64.52;99733.19;1747664;81;25725;-62
2021/12/22 09:43:34;;;;;;;17.17;9.45;;;;;;;2.82;65.50;99735.27;1732928;81;25661;-62
2021/12/22 09:46:06;;;;;;;22.05;13.28;;;;;;;2.88;64.66;99724.86;1693887;83;25818;-62
2021/12/22 09:53:43;;;;;;;21.00;11.80;;;;;;;2.59;63.50;99722.83;1739335;81;25695;-63
2021/12/22 09:56:11;;;;;;;21.23;13.18;;;;;;;2.47;64.46;99723.34;1741716;81;25455;-63
2021/12/22 09:58:44;;;;;;;14.73;8.35;;;;;;;2.60;64.24;99720.95;1732706;81;25757;-63
2021/12/22 10:01:12;;;;;;;123.97;66.70;;;;;;;2.51;60.95;99723.19;1716116;81;25607;-62
2021/12/22 10:03:39;;;;;;;73.90;38.88;;;;;;;2.43;62.84;99714.89;1715473;83;27440;-63
2021/12/22 10:06:06;;;;;;;97.33;50.03;;;;;;;2.78;63.77;99716.48;1726922;81;25482;-63
2021/12/22 10:08:36;;;;;;;33.70;19.02;;;;;;;3.30;61.45;99710.82;1759406;81;25605;-61
2021/12/22 10:11:10;;;;;;;21.82;10.72;;;;;;;3.67;61.26;99713.72;1759425;81;25571;-62
2021/12/22 10:13:41;;;;;;;14.45;7.70;;;;;;;3.97;56.95;99707.24;1759731;81;25421;-63
2021/12/22 10:16:16;;;;;;;;;;;;;;;4.30;58.64;99705.63;1762149;81;27352;-62
2021/12/22 10:18:43;;;;;;;59.70;28.98;;;;;;;4.22;56.23;99708.21;1759423;81;27152;-63
2021/12/22 10:21:21;;;;;;;52.50;31.07;;;;;;;4.25;60.35;99700.94;1759482;81;25615;-62
2021/12/22 10:23:51;;;;;;;36.48;23.80;;;;;;;4.71;59.29;99702.73;1759495;81;25898;-60
2021/12/22 10:26:23;;;;;;;18.57;11.68;;;;;;;5.02;58.05;99704.55;1759796;81;25609;-61
2021/12/22 10:29:01;;;;;;;17.62;11.40;;;;;;;5.24;55.12;99692.05;1759592;81;28698;-61
2021/12/22 10:31:43;;;;;;;17.82;10.15;;;;;;;5.37;57.61;99691.66;1759387;81;25626;-63
2021/12/22 10:34:17;;;;;;;23.32;13.32;;;;;;;5.83;55.91;99687.80;1759850;81;25680;-61
2021/12/22 10:36:54;;;;;;;35.25;16.20;;;;;;;6.26;55.49;99693.41;1759398;81;25771;-61
2021/12/22 10:39:28;;;;;;;41.90;24.05;;;;;;;6.61;55.39;99695.30;1759622;81;25697;-62
2021/12/22 10:42:10;;;;;;;48.70;20.30;;;;;;;6.82;54.88;99686.45;1759450;81;27381;-62
2021/12/22 10:44:40;;;;;;;55.45;27.17;;;;;;;5.99;46.25;99699.64;1759773;81;25615;-61
2021/12/22 10:47:33;;;;;;;44.67;18.12;;;;;;;5.41;54.99;99705.55;1760103;81;25768;-62
2021/12/22 10:50:04;;;;;;;46.53;26.62;;;;;;;4.99;49.88;99709.11;1757749;81;25618;-61
2021/12/22 10:52:31;;;;;;;49.58;24.85;;;;;;;4.32;54.47;99712.17;1759614;81;25664;-61
2021/12/22 10:55:14;;;;;;;25.12;14.70;;;;;;;4.09;55.34;99713.95;1759568;81;27481;-61
2021/12/22 10:57:45;;;;;;;36.45;17.37;;;;;;;3.93;56.41;99716.39;1759795;81;25670;-62
2021/12/22 11:00:18;;;;;;;;;;;;;;;3.56;54.88;99715.41;1762385;81;25411;-62
2021/12/22 11:03:03;;;;;;;26.55;16.32;;;;;;;3.30;53.68;99713.01;1758173;81;27784;-61
2021/12/22 11:05:30;;;;;;;39.18;23.35;;;;;;;3.06;56.60;99714.42;1759382;81;25657;-61
2021/12/22 11:07:58;;;;;;;25.57;13.50;;;;;;;2.91;57.54;99713.55;1759776;81;27414;-61
2021/12/22 11:10:30;;;;;;;38.63;20.43;;;;;;;2.84;56.81;99712.83;1759593;81;25426;-60
2021/12/22 11:13:04;;;;;;;16.48;8.68;;;;;;;2.64;56.94;99708.59;1759691;81;25663;-63
2021/12/22 11:15:43;;;;;;;34.80;19.40;;;;;;;2.46;56.34;99700.06;1759180;81;25722;-62
2021/12/22 11:18:30;;;;;;;41.02;22.17;;;;;;;2.25;57.65;99690.11;1759578;81;25652;-63
2021/12/22 11:21:21;;;;;;;18.98;9.38;;;;;;;2.14;57.62;99694.44;1759094;81;29521;-63
2021/12/22 11:23:45;;;;;;;14.47;7.42;;;;;;;1.92;55.92;99686.02;1759821;81;25589;-62
2021/12/22 11:26:12;;;;;;;33.18;17.82;;;;;;;1.70;56.38;99687.91;1759565;81;25740;-64
2021/12/22 11:28:40;;;;;;;27.73;14.35;;;;;;;1.57;57.70;99685.68;1759897;81;26281;-62
2021/12/22 11:31:09;;;;;;;21.20;10.35;;;;;;;1.50;57.22;99689.00;1759571;81;25452;-62
2021/12/22 11:33:36;;;;;;;41.42;20.15;;;;;;;1.42;58.34;99687.44;1759871;81;28494;-63
2021/12/22 11:36:04;;;;;;;32.20;17.40;;;;;;;1.45;58.72;99687.50;1738205;81;25484;-63
2021/12/22 11:38:32;;;;;;;39.53;21.30;;;;;;;1.25;58.39;99688.06;1759961;81;25436;-64
2021/12/22 11:41:16;;;;;;;31.93;17.80;;;;;;;1.12;57.64;99685.48;1759494;81;26119;-64